sensor_id;sensor_type;location;lat;lon;timestamp;pressure;altitude;pressure_sealevel;temperature;humidity
72857;BME280;62742;52.136;4.500;2023-05-22T00:01:23;101719.69;;;13.69;90.00
72857;BME280;62742;52.136;4.500;2023-05-22T00:03:51;101710.09;;;13.63;90.35
72857;BME280;62742;52.136;4.500;2023-05-22T00:06:19;101717.94;;;13.68;89.82
72857;BME280;62742;52.136;4.500;2023-05-22T00:08:46;101704.03;;;13.55;91.15
72857;BME280;62742;52.136;4.500;2023-05-22T00:11:13;101710.94;;;13.65;89.98
72857;BME280;62742;52.136;4.500;2023-05-22T00:13:39;101710.19;;;13.54;90.50
72857;BME280;62742;52.136;4.500;2023-05-22T00:16:05;101712.75;;;13.63;89.91
72857;BME280;62742;52.136;4.500;2023-05-22T00:18:32;101712.78;;;13.59;89.75
72857;BME280;62742;52.136;4.500;2023-05-22T00:20:58;101707.63;;;13.51;90.64
72857;BME280;62742;52.136;4.500;2023-05-22T00:23:24;101698.03;;;13.44;90.74
72857;BME280;62742;52.136;4.500;2023-05-22T00:25:52;101694.56;;;13.39;90.34
72857;BME280;62742;52.136;4.500;2023-05-22T00:28:19;101693.78;;;13.32;90.31
72857;BME280;62742;52.136;4.500;2023-05-22T00:30:45;101698.19;;;13.32;90.32
72857;BME280;62742;52.136;4.500;2023-05-22T00:33:11;101700.81;;;13.33;89.71
72857;BME280;62742;52.136;4.500;2023-05-22T00:35:37;101696.41;;;13.32;89.19
72857;BME280;62742;52.136;4.500;2023-05-22T00:38:04;101701.69;;;13.32;89.08
72857;BME280;62742;52.136;4.500;2023-05-22T00:40:31;101711.38;;;13.33;88.36
72857;BME280;62742;52.136;4.500;2023-05-22T00:42:57;101704.34;;;13.31;88.38
72857;BME280;62742;52.136;4.500;2023-05-22T00:45:23;101707.03;;;13.26;88.76
72857;BME280;62742;52.136;4.500;2023-05-22T00:47:50;101712.31;;;13.27;88.55
72857;BME280;62742;52.136;4.500;2023-05-22T00:50:17;101708.81;;;13.25;89.05
72857;BME280;62742;52.136;4.500;2023-05-22T00:52:44;101717.66;;;13.21;88.78
72857;BME280;62742;52.136;4.500;2023-05-22T00:55:12;101715.97;;;13.17;89.07
72857;BME280;62742;52.136;4.500;2023-05-22T00:57:39;101706.28;;;13.15;89.04
72857;BME280;62742;52.136;4.500;2023-05-22T01:00:07;101710.66;;;13.20;89.18
72857;BME280;62742;52.136;4.500;2023-05-22T01:02:38;101715.94;;;13.20;88.95
72857;BME280;62742;52.136;4.500;2023-05-22T01:05:07;101709.75;;;13.20;88.82
72857;BME280;62742;52.136;4.500;2023-05-22T01:07:36;101720.31;;;13.18;88.93
72857;BME280;62742;52.136;4.500;2023-05-22T01:10:05;101708.88;;;13.19;89.23
72857;BME280;62742;52.136;4.500;2023-05-22T01:15:30;101684.34;;;13.11;90.98
72857;BME280;62742;52.136;4.500;2023-05-22T01:20:57;101684.09;;;13.36;90.10
72857;BME280;62742;52.136;4.500;2023-05-22T01:31:45;101678.00;;;13.26;92.58
72857;BME280;62742;52.136;4.500;2023-05-22T01:34:15;101672.00;;;13.13;91.50
72857;BME280;62742;52.136;4.500;2023-05-22T01:36:44;101670.28;;;13.12;91.61
72857;BME280;62742;52.136;4.500;2023-05-22T01:39:11;101662.44;;;13.04;90.84
72857;BME280;62742;52.136;4.500;2023-05-22T01:41:39;101651.88;;;13.04;91.34
72857;BME280;62742;52.136;4.500;2023-05-22T01:44:07;101644.00;;;13.03;90.30
72857;BME280;62742;52.136;4.500;2023-05-22T01:46:33;101637.88;;;13.01;90.74
72857;BME280;62742;52.136;4.500;2023-05-22T01:48:59;101636.09;;;13.01;91.27
72857;BME280;62742;52.136;4.500;2023-05-22T01:51:28;101624.72;;;12.98;91.23
72857;BME280;62742;52.136;4.500;2023-05-22T01:57:01;101616.81;;;12.95;91.76
72857;BME280;62742;52.136;4.500;2023-05-22T02:02:23;101613.88;;;13.19;90.81
72857;BME280;62742;52.136;4.500;2023-05-22T02:04:54;101615.69;;;13.16;91.56
72857;BME280;62742;52.136;4.500;2023-05-22T02:07:24;101614.88;;;13.12;92.01
72857;BME280;62742;52.136;4.500;2023-05-22T02:09:52;101600.78;;;13.12;91.78
72857;BME280;62742;52.136;4.500;2023-05-22T02:12:21;101599.84;;;13.16;92.02
72857;BME280;62742;52.136;4.500;2023-05-22T02:14:48;101598.91;;;13.18;91.24
72857;BME280;62742;52.136;4.500;2023-05-22T02:17:15;101608.44;;;13.32;90.99
72857;BME280;62742;52.136;4.500;2023-05-22T02:19:46;101598.03;;;13.19;91.90
72857;BME280;62742;52.136;4.500;2023-05-22T02:22:12;101592.88;;;13.10;92.91
72857;BME280;62742;52.136;4.500;2023-05-22T02:24:40;101588.56;;;13.04;93.28
72857;BME280;62742;52.136;4.500;2023-05-22T02:27:08;101585.41;;;13.43;92.46
72857;BME280;62742;52.136;4.500;2023-05-22T02:29:34;101582.84;;;13.37;91.62
72857;BME280;62742;52.136;4.500;2023-05-22T02:32:01;101582.06;;;13.27;92.58
72857;BME280;62742;52.136;4.500;2023-05-22T02:34:27;101587.53;;;13.16;94.17
72857;BME280;62742;52.136;4.500;2023-05-22T02:36:54;101583.97;;;13.20;94.14
72857;BME280;62742;52.136;4.500;2023-05-22T02:39:20;101585.03;;;13.07;94.36
72857;BME280;62742;52.136;4.500;2023-05-22T02:41:47;101590.94;;;13.23;93.46
72857;BME280;62742;52.136;4.500;2023-05-22T02:44:13;101591.97;;;13.13;94.24
72857;BME280;62742;52.136;4.500;2023-05-22T02:46:39;101599.00;;;13.15;93.37
72857;BME280;62742;52.136;4.500;2023-05-22T02:49:05;101597.28;;;13.11;94.08
72857;BME280;62742;52.136;4.500;2023-05-22T02:51:31;101604.28;;;13.14;94.73
72857;BME280;62742;52.136;4.500;2023-05-22T02:53:58;101601.81;;;13.00;94.98
72857;BME280;62742;52.136;4.500;2023-05-22T02:56:24;101600.97;;;12.96;95.74
72857;BME280;62742;52.136;4.500;2023-05-22T02:58:53;101603.69;;;12.93;94.98
72857;BME280;62742;52.136;4.500;2023-05-22T03:01:21;101598.38;;;12.95;95.00
72857;BME280;62742;52.136;4.500;2023-05-22T03:03:47;101600.25;;;12.86;95.89
72857;BME280;62742;52.136;4.500;2023-05-22T03:06:14;101606.97;;;13.09;94.62
72857;BME280;62742;52.136;4.500;2023-05-22T03:08:41;101601.78;;;13.03;95.23
72857;BME280;62742;52.136;4.500;2023-05-22T03:11:09;101599.97;;;13.05;94.94
72857;BME280;62742;52.136;4.500;2023-05-22T03:13:35;101600.94;;;12.99;95.29
72857;BME280;62742;52.136;4.500;2023-05-22T03:16:02;101600.13;;;12.96;95.79
72857;BME280;62742;52.136;4.500;2023-05-22T03:18:28;101602.63;;;13.05;95.53
72857;BME280;62742;52.136;4.500;2023-05-22T03:20:54;101607.84;;;13.09;95.79
72857;BME280;62742;52.136;4.500;2023-05-22T03:23:20;101609.78;;;12.98;95.96
72857;BME280;62742;52.136;4.500;2023-05-22T03:25:47;101607.19;;;12.94;96.19
72857;BME280;62742;52.136;4.500;2023-05-22T03:28:13;101604.53;;;12.95;96.06
72857;BME280;62742;52.136;4.500;2023-05-22T03:30:39;101601.91;;;12.94;96.95
72857;BME280;62742;52.136;4.500;2023-05-22T03:33:06;101603.56;;;13.02;97.07
72857;BME280;62742;52.136;4.500;2023-05-22T03:35:32;101599.09;;;13.06;96.64
72857;BME280;62742;52.136;4.500;2023-05-22T03:37:58;101604.38;;;13.07;96.36
72857;BME280;62742;52.136;4.500;2023-05-22T03:40:24;101606.94;;;13.12;96.78
72857;BME280;62742;52.136;4.500;2023-05-22T03:42:50;101607.03;;;13.06;95.66
72857;BME280;62742;52.136;4.500;2023-05-22T03:45:16;101607.81;;;13.13;96.02
72857;BME280;62742;52.136;4.500;2023-05-22T03:47:43;101604.41;;;13.04;95.19
72857;BME280;62742;52.136;4.500;2023-05-22T03:50:09;101607.06;;;13.01;96.83
72857;BME280;62742;52.136;4.500;2023-05-22T03:52:36;101602.56;;;13.09;96.91
72857;BME280;62742;52.136;4.500;2023-05-22T03:55:02;101610.16;;;13.36;95.23
72857;BME280;62742;52.136;4.500;2023-05-22T03:57:29;101605.78;;;13.30;95.07
72857;BME280;62742;52.136;4.500;2023-05-22T03:59:55;101595.41;;;13.18;95.36
72857;BME280;62742;52.136;4.500;2023-05-22T04:02:22;101596.34;;;13.15;96.11
72857;BME280;62742;52.136;4.500;2023-05-22T04:04:50;101592.72;;;13.22;95.33
72857;BME280;62742;52.136;4.500;2023-05-22T04:07:17;101591.97;;;13.14;96.30
72857;BME280;62742;52.136;4.500;2023-05-22T04:09:45;101593.78;;;13.09;96.75
72857;BME280;62742;52.136;4.500;2023-05-22T04:12:11;101588.56;;;13.04;97.18
72857;BME280;62742;52.136;4.500;2023-05-22T04:14:37;101591.19;;;13.04;97.10
72857;BME280;62742;52.136;4.500;2023-05-22T04:17:03;101595.38;;;13.21;96.78
72857;BME280;62742;52.136;4.500;2023-05-22T04:19:29;101599.66;;;13.29;94.03
72857;BME280;62742;52.136;4.500;2023-05-22T04:21:57;101597.16;;;13.20;94.94
72857;BME280;62742;52.136;4.500;2023-05-22T04:24:23;101605.06;;;13.20;95.20
72857;BME280;62742;52.136;4.500;2023-05-22T04:26:50;101600.50;;;13.33;95.00
72857;BME280;62742;52.136;4.500;2023-05-22T04:29:16;101600.47;;;13.36;95.18
72857;BME280;62742;52.136;4.500;2023-05-22T04:31:44;101606.63;;;13.37;94.91
72857;BME280;62742;52.136;4.500;2023-05-22T04:34:10;101610.03;;;13.43;95.35
72857;BME280;62742;52.136;4.500;2023-05-22T04:36:39;101611.84;;;13.40;94.67
72857;BME280;62742;52.136;4.500;2023-05-22T04:39:08;101612.63;;;13.46;94.02
72857;BME280;62742;52.136;4.500;2023-05-22T04:41:34;101606.53;;;13.43;94.58
72857;BME280;62742;52.136;4.500;2023-05-22T04:44:00;101615.91;;;13.61;93.81
72857;BME280;62742;52.136;4.500;2023-05-22T04:46:28;101608.09;;;13.56;93.88
72857;BME280;62742;52.136;4.500;2023-05-22T04:48:54;101608.19;;;13.49;94.23
72857;BME280;62742;52.136;4.500;2023-05-22T04:51:21;101613.69;;;13.35;95.68
72857;BME280;62742;52.136;4.500;2023-05-22T04:53:47;101608.19;;;13.49;95.67
72857;BME280;62742;52.136;4.500;2023-05-22T04:56:14;101618.75;;;13.49;94.58
72857;BME280;62742;52.136;4.500;2023-05-22T04:58:40;101613.16;;;13.70;94.13
72857;BME280;62742;52.136;4.500;2023-05-22T05:01:07;101620.19;;;13.70;93.76
72857;BME280;62742;52.136;4.500;2023-05-22T05:03:34;101620.34;;;13.60;95.55
72857;BME280;62742;52.136;4.500;2023-05-22T05:06:00;101615.59;;;13.81;94.66
72857;BME280;62742;52.136;4.500;2023-05-22T05:08:26;101627.50;;;14.07;94.18
72857;BME280;62742;52.136;4.500;2023-05-22T05:10:52;101619.56;;;14.07;93.75
72857;BME280;62742;52.136;4.500;2023-05-22T05:13:18;101620.03;;;14.77;90.90
72857;BME280;62742;52.136;4.500;2023-05-22T05:15:45;101613.13;;;15.12;89.14
72857;BME280;62742;52.136;4.500;2023-05-22T05:18:11;101606.41;;;15.36;87.92
72857;BME280;62742;52.136;4.500;2023-05-22T05:20:37;101597.47;;;15.40;86.28
72857;BME280;62742;52.136;4.500;2023-05-22T05:23:03;101618.19;;;15.23;86.57
72857;BME280;62742;52.136;4.500;2023-05-22T05:25:30;101623.16;;;14.96;87.75
72857;BME280;62742;52.136;4.500;2023-05-22T05:27:56;101617.75;;;15.02;86.69
72857;BME280;62742;52.136;4.500;2023-05-22T05:30:22;101621.28;;;15.01;86.55
72857;BME280;62742;52.136;4.500;2023-05-22T05:32:48;101625.22;;;14.82;87.85
72857;BME280;62742;52.136;4.500;2023-05-22T05:35:15;101630.88;;;14.65;88.13
72857;BME280;62742;52.136;4.500;2023-05-22T05:37:41;101634.63;;;14.50;90.04
72857;BME280;62742;52.136;4.500;2023-05-22T05:40:08;101644.94;;;14.67;89.40
72857;BME280;62742;52.136;4.500;2023-05-22T05:42:34;101633.88;;;14.91;88.61
72857;BME280;62742;52.136;4.500;2023-05-22T05:45:00;101636.72;;;14.79;89.23
72857;BME280;62742;52.136;4.500;2023-05-22T05:47:26;101648.75;;;14.95;88.86
72857;BME280;62742;52.136;4.500;2023-05-22T05:49:54;101643.19;;;15.08;88.60
72857;BME280;62742;52.136;4.500;2023-05-22T05:52:20;101650.66;;;14.89;88.99
72857;BME280;62742;52.136;4.500;2023-05-22T05:54:46;101646.28;;;14.88;89.56
72857;BME280;62742;52.136;4.500;2023-05-22T05:57:13;101644.16;;;15.05;88.64
72857;BME280;62742;52.136;4.500;2023-05-22T05:59:39;101651.25;;;15.03;89.17
72857;BME280;62742;52.136;4.500;2023-05-22T06:02:06;101650.84;;;15.22;88.63
72857;BME280;62742;52.136;4.500;2023-05-22T06:04:32;101654.13;;;15.33;88.09
72857;BME280;62742;52.136;4.500;2023-05-22T06:06:58;101663.56;;;15.46;87.99
72857;BME280;62742;52.136;4.500;2023-05-22T06:09:26;101657.22;;;15.52;87.98
72857;BME280;62742;52.136;4.500;2023-05-22T06:11:52;101661.97;;;15.38;86.81
72857;BME280;62742;52.136;4.500;2023-05-22T06:14:18;101666.59;;;15.28;88.58
72857;BME280;62742;52.136;4.500;2023-05-22T06:16:45;101667.31;;;15.36;89.30
72857;BME280;62742;52.136;4.500;2023-05-22T06:19:11;101661.41;;;15.23;89.69
72857;BME280;62742;52.136;4.500;2023-05-22T06:21:37;101660.16;;;15.40;89.29
72857;BME280;62742;52.136;4.500;2023-05-22T06:24:03;101662.25;;;15.64;88.09
72857;BME280;62742;52.136;4.500;2023-05-22T06:26:30;101654.41;;;15.60;87.44
72857;BME280;62742;52.136;4.500;2023-05-22T06:28:56;101654.47;;;15.57;87.94
72857;BME280;62742;52.136;4.500;2023-05-22T06:31:23;101661.28;;;15.68;88.64
72857;BME280;62742;52.136;4.500;2023-05-22T06:33:49;101658.25;;;15.85;87.99
72857;BME280;62742;52.136;4.500;2023-05-22T06:36:16;101652.03;;;15.86;87.78
72857;BME280;62742;52.136;4.500;2023-05-22T06:38:43;101649.63;;;15.77;86.90
72857;BME280;62742;52.136;4.500;2023-05-22T06:41:14;101655.91;;;15.71;87.94
72857;BME280;62742;52.136;4.500;2023-05-22T06:43:40;101653.88;;;15.83;89.02
72857;BME280;62742;52.136;4.500;2023-05-22T06:46:06;101653.75;;;15.89;86.91
72857;BME280;62742;52.136;4.500;2023-05-22T06:48:33;101651.97;;;15.89;87.96
72857;BME280;62742;52.136;4.500;2023-05-22T06:51:00;101659.84;;;15.93;87.99
72857;BME280;62742;52.136;4.500;2023-05-22T06:53:27;101653.28;;;15.70;88.49
72857;BME280;62742;52.136;4.500;2023-05-22T06:55:53;101657.44;;;15.83;88.83
72857;BME280;62742;52.136;4.500;2023-05-22T06:58:19;101659.81;;;15.94;88.51
72857;BME280;62742;52.136;4.500;2023-05-22T07:00:45;101665.22;;;15.89;87.85
72857;BME280;62742;52.136;4.500;2023-05-22T07:03:11;101670.19;;;16.02;87.56
72857;BME280;62742;52.136;4.500;2023-05-22T07:05:38;101672.75;;;16.06;86.86
72857;BME280;62742;52.136;4.500;2023-05-22T07:08:04;101688.50;;;16.47;86.36
72857;BME280;62742;52.136;4.500;2023-05-22T07:10:31;101703.34;;;16.20;86.32
72857;BME280;62742;52.136;4.500;2023-05-22T07:12:57;101677.63;;;16.56;86.14
72857;BME280;62742;52.136;4.500;2023-05-22T07:15:23;101686.44;;;16.91;83.94
72857;BME280;62742;52.136;4.500;2023-05-22T07:17:49;101699.75;;;17.51;82.00
72857;BME280;62742;52.136;4.500;2023-05-22T07:20:15;101696.88;;;17.57;79.86
72857;BME280;62742;52.136;4.500;2023-05-22T07:22:42;101696.44;;;17.43;80.25
72857;BME280;62742;52.136;4.500;2023-05-22T07:25:08;101691.03;;;17.46;80.32
72857;BME280;62742;52.136;4.500;2023-05-22T07:27:35;101687.47;;;17.17;81.50
72857;BME280;62742;52.136;4.500;2023-05-22T07:30:01;101686.94;;;17.04;81.64
72857;BME280;62742;52.136;4.500;2023-05-22T07:32:27;101693.25;;;17.01;81.27
72857;BME280;62742;52.136;4.500;2023-05-22T07:34:54;101696.25;;;17.19;81.65
72857;BME280;62742;52.136;4.500;2023-05-22T07:37:20;101694.22;;;16.97;81.34
72857;BME280;62742;52.136;4.500;2023-05-22T07:39:46;101691.34;;;17.05;81.41
72857;BME280;62742;52.136;4.500;2023-05-22T07:42:13;101680.97;;;16.96;80.14
72857;BME280;62742;52.136;4.500;2023-05-22T07:44:39;101686.78;;;17.10;80.17
72857;BME280;62742;52.136;4.500;2023-05-22T07:47:09;101688.63;;;17.08;79.66
72857;BME280;62742;52.136;4.500;2023-05-22T07:49:35;101690.22;;;17.14;80.61
72857;BME280;62742;52.136;4.500;2023-05-22T07:52:01;101691.22;;;17.39;79.29
72857;BME280;62742;52.136;4.500;2023-05-22T07:54:27;101702.19;;;17.57;78.65
72857;BME280;62742;52.136;4.500;2023-05-22T07:56:54;101693.53;;;17.50;78.28
72857;BME280;62742;52.136;4.500;2023-05-22T07:59:20;101697.34;;;17.42;79.43
72857;BME280;62742;52.136;4.500;2023-05-22T08:01:48;101695.72;;;18.21;77.94
72857;BME280;62742;52.136;4.500;2023-05-22T08:04:15;101695.16;;;18.63;75.50
72857;BME280;62742;52.136;4.500;2023-05-22T08:06:41;101698.63;;;19.39;73.37
72857;BME280;62742;52.136;4.500;2023-05-22T08:09:08;101688.13;;;19.80;72.39
72857;BME280;62742;52.136;4.500;2023-05-22T08:11:35;101696.09;;;20.24;70.26
72857;BME280;62742;52.136;4.500;2023-05-22T08:14:04;101695.06;;;20.06;69.55
72857;BME280;62742;52.136;4.500;2023-05-22T08:16:30;101697.25;;;20.17;71.40
72857;BME280;62742;52.136;4.500;2023-05-22T08:18:57;101696.53;;;20.13;72.19
72857;BME280;62742;52.136;4.500;2023-05-22T08:21:23;101689.34;;;20.98;68.69
72857;BME280;62742;52.136;4.500;2023-05-22T08:23:49;101686.56;;;21.58;67.51
72857;BME280;62742;52.136;4.500;2023-05-22T08:26:15;101693.00;;;21.90;66.18
72857;BME280;62742;52.136;4.500;2023-05-22T08:28:42;101684.66;;;21.22;66.15
72857;BME280;62742;52.136;4.500;2023-05-22T08:31:09;101682.50;;;21.85;64.25
72857;BME280;62742;52.136;4.500;2023-05-22T08:33:36;101685.06;;;22.23;63.64
72857;BME280;62742;52.136;4.500;2023-05-22T08:36:02;101674.38;;;22.58;61.96
72857;BME280;62742;52.136;4.500;2023-05-22T08:38:29;101674.44;;;23.08;61.48
72857;BME280;62742;52.136;4.500;2023-05-22T08:40:56;101669.22;;;22.71;61.39
72857;BME280;62742;52.136;4.500;2023-05-22T08:43:23;101668.03;;;23.10;61.67
72857;BME280;62742;52.136;4.500;2023-05-22T08:45:51;101672.13;;;23.33;60.59
72857;BME280;62742;52.136;4.500;2023-05-22T08:48:22;101665.59;;;23.53;58.44
72857;BME280;62742;52.136;4.500;2023-05-22T08:50:52;101666.28;;;23.57;59.58
72857;BME280;62742;52.136;4.500;2023-05-22T08:53:24;101655.94;;;23.51;59.05
72857;BME280;62742;52.136;4.500;2023-05-22T08:55:53;101667.63;;;23.82;58.31
72857;BME280;62742;52.136;4.500;2023-05-22T08:58:20;101666.66;;;23.51;58.21
72857;BME280;62742;52.136;4.500;2023-05-22T09:00:47;101662.50;;;23.93;57.58
72857;BME280;62742;52.136;4.500;2023-05-22T09:03:14;101669.25;;;23.21;58.23
72857;BME280;62742;52.136;4.500;2023-05-22T09:05:40;101669.56;;;23.78;58.77
72857;BME280;62742;52.136;4.500;2023-05-22T09:08:06;101668.25;;;24.01;56.96
72857;BME280;62742;52.136;4.500;2023-05-22T09:10:33;101670.81;;;24.19;57.62
72857;BME280;62742;52.136;4.500;2023-05-22T09:13:03;101665.63;;;24.16;56.97
72857;BME280;62742;52.136;4.500;2023-05-22T09:15:36;101662.03;;;24.15;56.52
72857;BME280;62742;52.136;4.500;2023-05-22T09:18:03;101658.97;;;24.07;57.28
72857;BME280;62742;52.136;4.500;2023-05-22T09:20:37;101657.22;;;24.36;55.79
72857;BME280;62742;52.136;4.500;2023-05-22T09:23:09;101659.91;;;24.51;55.56
72857;BME280;62742;52.136;4.500;2023-05-22T09:25:42;101657.75;;;24.57;55.63
72857;BME280;62742;52.136;4.500;2023-05-22T09:28:09;101659.50;;;23.98;56.96
72857;BME280;62742;52.136;4.500;2023-05-22T09:30:36;101649.53;;;24.30;56.87
72857;BME280;62742;52.136;4.500;2023-05-22T09:33:03;101660.72;;;24.81;55.67
72857;BME280;62742;52.136;4.500;2023-05-22T09:35:36;101661.66;;;24.52;55.19
72857;BME280;62742;52.136;4.500;2023-05-22T09:38:04;101657.19;;;25.10;53.38
72857;BME280;62742;52.136;4.500;2023-05-22T09:40:32;101665.25;;;24.81;54.83
72857;BME280;62742;52.136;4.500;2023-05-22T09:43:00;101659.78;;;24.82;55.62
72857;BME280;62742;52.136;4.500;2023-05-22T09:45:31;101665.00;;;25.42;53.32
72857;BME280;62742;52.136;4.500;2023-05-22T09:48:00;101662.00;;;25.61;54.17
72857;BME280;62742;52.136;4.500;2023-05-22T09:50:33;101679.09;;;25.60;54.12
72857;BME280;62742;52.136;4.500;2023-05-22T09:53:01;101667.81;;;25.40;53.71
72857;BME280;62742;52.136;4.500;2023-05-22T09:55:29;101660.63;;;25.26;53.61
72857;BME280;62742;52.136;4.500;2023-05-22T09:57:56;101667.22;;;25.89;52.29
72857;BME280;62742;52.136;4.500;2023-05-22T10:00:27;101673.22;;;24.82;55.11
72857;BME280;62742;52.136;4.500;2023-05-22T10:05:20;101662.47;;;25.11;54.30
72857;BME280;62742;52.136;4.500;2023-05-22T10:07:50;101663.44;;;25.79;53.24
72857;BME280;62742;52.136;4.500;2023-05-22T10:10:29;101675.66;;;25.43;53.20
72857;BME280;62742;52.136;4.500;2023-05-22T10:13:00;101674.44;;;25.76;52.43
72857;BME280;62742;52.136;4.500;2023-05-22T10:15:29;101665.91;;;25.28;52.51
72857;BME280;62742;52.136;4.500;2023-05-22T10:17:57;101671.97;;;24.88;54.51
72857;BME280;62742;52.136;4.500;2023-05-22T10:20:27;101673.25;;;25.53;53.11
72857;BME280;62742;52.136;4.500;2023-05-22T10:22:54;101688.22;;;25.57;52.89
72857;BME280;62742;52.136;4.500;2023-05-22T10:25:21;101669.97;;;25.06;50.97
72857;BME280;62742;52.136;4.500;2023-05-22T10:27:48;101668.69;;;25.12;53.51
72857;BME280;62742;52.136;4.500;2023-05-22T10:32:49;101668.13;;;25.35;52.35
72857;BME280;62742;52.136;4.500;2023-05-22T10:38:14;101669.06;;;25.34;52.03
72857;BME280;62742;52.136;4.500;2023-05-22T10:41:12;101667.22;;;25.20;53.25
72857;BME280;62742;52.136;4.500;2023-05-22T10:43:40;101667.31;;;25.48;51.81
72857;BME280;62742;52.136;4.500;2023-05-22T10:46:10;101660.75;;;24.96;54.06
72857;BME280;62742;52.136;4.500;2023-05-22T10:48:38;101652.00;;;24.92;53.03
72857;BME280;62742;52.136;4.500;2023-05-22T10:51:05;101650.94;;;24.95;53.26
72857;BME280;62742;52.136;4.500;2023-05-22T10:53:33;101650.59;;;25.43;53.01
72857;BME280;62742;52.136;4.500;2023-05-22T10:56:10;101659.59;;;25.83;51.41
72857;BME280;62742;52.136;4.500;2023-05-22T10:58:42;101653.69;;;25.64;52.22
72857;BME280;62742;52.136;4.500;2023-05-22T11:01:11;101649.28;;;25.90;51.49
72857;BME280;62742;52.136;4.500;2023-05-22T11:03:51;101648.81;;;26.23;52.09
72857;BME280;62742;52.136;4.500;2023-05-22T11:11:41;101646.06;;;25.98;51.81
72857;BME280;62742;52.136;4.500;2023-05-22T11:14:09;101636.09;;;26.12;51.88
72857;BME280;62742;52.136;4.500;2023-05-22T11:16:37;101632.53;;;26.25;51.32
72857;BME280;62742;52.136;4.500;2023-05-22T11:19:04;101634.34;;;25.71;51.77
72857;BME280;62742;52.136;4.500;2023-05-22T11:21:35;101631.84;;;25.96;52.33
72857;BME280;62742;52.136;4.500;2023-05-22T11:24:12;101631.81;;;26.36;52.52
72857;BME280;62742;52.136;4.500;2023-05-22T11:26:41;101629.53;;;26.29;50.54
72857;BME280;62742;52.136;4.500;2023-05-22T11:29:07;101632.41;;;26.01;52.17
72857;BME280;62742;52.136;4.500;2023-05-22T11:31:34;101628.66;;;26.42;51.53
72857;BME280;62742;52.136;4.500;2023-05-22T11:34:04;101638.38;;;26.31;52.76
72857;BME280;62742;52.136;4.500;2023-05-22T11:36:30;101638.38;;;26.57;52.82
72857;BME280;62742;52.136;4.500;2023-05-22T11:38:57;101634.50;;;26.48;51.80
72857;BME280;62742;52.136;4.500;2023-05-22T11:41:33;101635.59;;;26.72;50.54
72857;BME280;62742;52.136;4.500;2023-05-22T11:44:00;101641.19;;;26.43;49.39
72857;BME280;62742;52.136;4.500;2023-05-22T11:46:27;101649.81;;;26.48;51.47
72857;BME280;62742;52.136;4.500;2023-05-22T11:48:55;101649.63;;;26.64;51.23
72857;BME280;62742;52.136;4.500;2023-05-22T11:51:21;101646.13;;;26.36;52.60
72857;BME280;62742;52.136;4.500;2023-05-22T11:53:47;101645.69;;;25.89;50.93
72857;BME280;62742;52.136;4.500;2023-05-22T11:56:14;101658.41;;;25.60;52.78
72857;BME280;62742;52.136;4.500;2023-05-22T11:58:40;101659.63;;;26.36;51.85
72857;BME280;62742;52.136;4.500;2023-05-22T12:01:06;101656.28;;;26.33;49.85
72857;BME280;62742;52.136;4.500;2023-05-22T12:03:32;101662.59;;;26.06;50.24
72857;BME280;62742;52.136;4.500;2023-05-22T12:05:58;101666.81;;;26.23;51.38
72857;BME280;62742;52.136;4.500;2023-05-22T12:08:27;101660.69;;;26.46;50.05
72857;BME280;62742;52.136;4.500;2023-05-22T12:10:53;101668.56;;;26.49;50.48
72857;BME280;62742;52.136;4.500;2023-05-22T12:13:26;101665.66;;;26.91;49.45
72857;BME280;62742;52.136;4.500;2023-05-22T12:15:54;101663.63;;;26.69;49.06
72857;BME280;62742;52.136;4.500;2023-05-22T12:18:46;101664.22;;;26.08;50.29
72857;BME280;62742;52.136;4.500;2023-05-22T12:21:11;101667.47;;;25.86;51.82
72857;BME280;62742;52.136;4.500;2023-05-22T12:23:46;101663.13;;;26.11;51.37
72857;BME280;62742;52.136;4.500;2023-05-22T12:26:14;101657.34;;;26.43;50.63
72857;BME280;62742;52.136;4.500;2023-05-22T12:28:42;101661.19;;;25.31;51.43
72857;BME280;62742;52.136;4.500;2023-05-22T12:31:18;101665.53;;;24.62;54.19
72857;BME280;62742;52.136;4.500;2023-05-22T12:33:45;101670.72;;;25.37;52.93
72857;BME280;62742;52.136;4.500;2023-05-22T12:36:12;101675.66;;;25.57;53.30
72857;BME280;62742;52.136;4.500;2023-05-22T12:38:39;101673.19;;;25.40;51.60
72857;BME280;62742;52.136;4.500;2023-05-22T12:41:05;101671.38;;;25.41;53.31
72857;BME280;62742;52.136;4.500;2023-05-22T12:43:32;101670.56;;;25.80;53.32
72857;BME280;62742;52.136;4.500;2023-05-22T12:45:58;101665.56;;;24.91;53.27
72857;BME280;62742;52.136;4.500;2023-05-22T12:48:24;101669.53;;;25.41;52.14
72857;BME280;62742;52.136;4.500;2023-05-22T12:50:51;101663.13;;;25.29;52.91
72857;BME280;62742;52.136;4.500;2023-05-22T12:53:17;101670.50;;;26.35;52.38
72857;BME280;62742;52.136;4.500;2023-05-22T12:55:44;101672.75;;;25.61;52.47
72857;BME280;62742;52.136;4.500;2023-05-22T12:58:10;101663.09;;;25.71;53.49
72857;BME280;62742;52.136;4.500;2023-05-22T13:00:37;101675.53;;;25.86;51.27
72857;BME280;62742;52.136;4.500;2023-05-22T13:03:03;101672.25;;;25.27;51.55
72857;BME280;62742;52.136;4.500;2023-05-22T13:05:31;101675.78;;;25.69;52.49
72857;BME280;62742;52.136;4.500;2023-05-22T13:07:57;101669.84;;;25.64;54.20
72857;BME280;62742;52.136;4.500;2023-05-22T13:10:23;101669.69;;;25.52;53.46
72857;BME280;62742;52.136;4.500;2023-05-22T13:12:49;101674.63;;;25.73;51.11
72857;BME280;62742;52.136;4.500;2023-05-22T13:15:19;101669.91;;;26.17;51.61
72857;BME280;62742;52.136;4.500;2023-05-22T13:17:45;101678.84;;;26.04;52.29
72857;BME280;62742;52.136;4.500;2023-05-22T13:20:11;101679.81;;;25.34;51.78
72857;BME280;62742;52.136;4.500;2023-05-22T13:22:38;101679.28;;;25.56;51.79
72857;BME280;62742;52.136;4.500;2023-05-22T13:25:05;101679.81;;;25.49;53.29